createdAt,value
2022-09-21T00:00:33.894Z,4.88
2022-09-21T00:10:41.261Z,7.85
2022-09-21T00:15:48.764Z,5.05
2022-09-21T00:20:54.740Z,5.70
2022-09-21T06:46:44.890Z,10.23
2022-09-21T06:51:50.183Z,16.70
2022-09-21T07:02:03.955Z,13.55
2022-09-21T07:07:09.670Z,11.63
2022-09-21T07:12:15.111Z,12.32
2022-09-21T07:17:19.530Z,10.68
2022-09-21T07:22:24.646Z,16.05
2022-09-21T07:27:30.688Z,13.63
2022-09-21T07:32:34.700Z,10.05
2022-09-21T07:37:40.193Z,10.77
2022-09-21T07:42:45.147Z,10.75
2022-09-21T07:52:57.622Z,11.07
2022-09-21T07:58:18.800Z,15.38
2022-09-21T08:03:22.462Z,9.95
2022-09-21T08:08:27.616Z,9.15
2022-09-21T08:13:33.562Z,7.22
2022-09-21T08:18:44.616Z,8.52
2022-09-21T08:23:51.984Z,10.48
2022-09-21T08:28:58.874Z,10.55
2022-09-21T08:34:05.729Z,6.53
2022-09-21T08:39:11.007Z,10.27
2022-09-21T08:44:20.689Z,7.20
2022-09-21T08:49:28.918Z,9.57
2022-09-21T08:54:45.266Z,9.30
2022-09-21T08:59:50.645Z,12.38
2022-09-21T09:05:04.641Z,12.05
2022-09-21T09:10:21.054Z,10.63
2022-09-21T09:15:42.868Z,9.57
2022-09-21T09:20:50.495Z,8.27
2022-09-21T09:26:01.161Z,11.48
2022-09-21T09:31:14.628Z,10.35
2022-09-21T09:36:30.071Z,11.68
2022-09-21T09:42:23.939Z,11.63
2022-09-21T09:47:39.948Z,7.07
2022-09-21T09:52:45.236Z,3.67
2022-09-21T09:57:50.192Z,3.88
2022-09-21T10:02:56.566Z,5.40
2022-09-21T10:08:31.303Z,3.25
2022-09-21T10:13:45.023Z,2.47
2022-09-21T10:18:52.118Z,2.63
2022-09-21T10:24:04.364Z,3.42
2022-09-21T10:29:20.456Z,2.40
2022-09-21T10:34:27.350Z,6.07
2022-09-21T10:39:32.558Z,3.65
2022-09-21T10:44:40.354Z,3.35
2022-09-21T10:49:50.259Z,3.42
2022-09-21T10:54:57.117Z,4.35
2022-09-21T11:00:29.593Z,2.17
2022-09-21T11:05:38.142Z,1.33
2022-09-21T11:10:48.366Z,3.80
2022-09-21T11:15:57.820Z,3.80
2022-09-21T11:21:10.515Z,1.70
2022-09-21T11:26:23.339Z,4.97
2022-09-21T11:31:50.146Z,1.38
2022-09-21T11:37:09.910Z,1.52
2022-09-21T11:42:23.802Z,4.90
2022-09-21T11:47:41.408Z,2.95
2022-09-21T11:52:59.753Z,1.10
2022-09-21T11:58:18.619Z,3.35
2022-09-21T12:03:41.605Z,1.77
2022-09-21T12:09:29.726Z,3.47
2022-09-21T12:14:42.798Z,1.10
2022-09-21T12:19:56.864Z,5.03
2022-09-21T12:25:04.348Z,1.83
2022-09-21T12:30:14.950Z,7.15
2022-09-21T12:35:25.717Z,7.30
2022-09-21T12:40:38.033Z,3.60
2022-09-21T12:45:47.389Z,3.85
2022-09-21T12:50:57.147Z,3.80
2022-09-21T12:56:09.653Z,3.58
2022-09-21T13:01:26.221Z,6.00
2022-09-21T13:06:50.530Z,3.97
2022-09-21T13:11:56.979Z,2.35
2022-09-21T13:17:04.971Z,5.00
2022-09-21T13:22:18.970Z,3.42
2022-09-21T13:27:22.462Z,3.38
2022-09-21T13:32:54.719Z,4.45
2022-09-21T13:38:25.928Z,1.67
2022-09-21T13:44:05.225Z,1.70
2022-09-21T13:49:21.291Z,25.95
2022-09-21T13:54:28.057Z,4.70
2022-09-21T13:59:34.890Z,4.72
2022-09-21T14:04:41.118Z,2.45
2022-09-21T14:09:55.902Z,4.97
2022-09-21T14:15:34.329Z,6.18
2022-09-21T14:20:39.867Z,3.80
2022-09-21T14:25:52.167Z,2.88
2022-09-21T14:31:00.449Z,1.90
2022-09-21T14:36:11.589Z,3.45
2022-09-21T14:41:20.295Z,2.67
2022-09-21T14:46:59.807Z,0.90
2022-09-21T14:52:24.900Z,3.92
2022-09-21T14:57:49.363Z,3.97
2022-09-21T15:03:19.349Z,2.78
2022-09-21T15:09:03.938Z,1.90
2022-09-21T15:14:24.467Z,1.38
2022-09-21T15:19:40.095Z,1.75
2022-09-21T15:24:51.810Z,2.38
2022-09-21T15:29:57.562Z,0.88
2022-09-21T15:35:03.667Z,1.17
2022-09-21T15:40:19.883Z,3.22
2022-09-21T15:45:27.282Z,2.58
2022-09-21T15:50:40.204Z,3.63
2022-09-21T15:56:49.664Z,9.57
2022-09-21T16:08:09.470Z,3.67
2022-09-21T16:13:37.996Z,0.70
2022-09-21T16:18:49.384Z,2.80
2022-09-21T16:23:55.457Z,1.30
2022-09-21T16:29:18.164Z,3.78
2022-09-21T16:34:35.264Z,1.45
2022-09-21T16:39:38.922Z,2.17
2022-09-21T16:44:45.063Z,1.00
2022-09-21T16:49:50.041Z,2.67
2022-09-21T16:54:56.558Z,4.28
2022-09-21T17:00:00.032Z,6.30
2022-09-21T17:05:08.612Z,6.18
2022-09-21T17:10:17.122Z,5.38
2022-09-21T17:15:22.913Z,2.95
2022-09-21T17:20:34.396Z,7.45
2022-09-21T17:25:40.362Z,23.73
2022-09-21T17:30:46.491Z,15.05
2022-09-21T17:35:53.138Z,10.73
2022-09-21T17:40:57.568Z,8.82
2022-09-21T17:46:09.245Z,4.10
2022-09-21T17:51:38.429Z,3.00
2022-09-21T17:56:48.316Z,3.72
2022-09-21T18:01:52.692Z,4.25
2022-09-21T18:06:59.295Z,5.20
2022-09-21T18:12:30.452Z,4.97
2022-09-21T18:17:52.572Z,6.43
2022-09-21T18:23:07.747Z,7.05
2022-09-21T18:28:17.129Z,8.02
2022-09-21T18:33:33.136Z,5.32
2022-09-21T18:38:42.711Z,12.80
2022-09-21T18:44:06.003Z,7.32
2022-09-21T18:49:28.997Z,7.80
2022-09-21T18:54:37.949Z,4.78
2022-09-21T18:59:44.496Z,6.57
2022-09-21T19:04:53.613Z,7.63
2022-09-21T19:10:08.398Z,16.45
2022-09-21T19:16:00.795Z,16.45
2022-09-21T19:21:21.842Z,7.47
2022-09-21T19:26:40.746Z,12.55
2022-09-21T19:31:50.510Z,17.90
2022-09-21T19:42:56.596Z,11.20
2022-09-21T19:48:07.081Z,19.27
2022-09-21T19:59:28.872Z,11.70
2022-09-21T20:04:39.409Z,10.52
2022-09-21T20:09:54.536Z,14.10
2022-09-21T20:15:15.926Z,21.45
2022-09-21T20:20:29.424Z,23.05
2022-09-21T20:25:40.269Z,19.25
2022-09-21T20:31:24.155Z,19.55
2022-09-21T20:36:45.087Z,34.38
2022-09-21T20:47:24.572Z,37.72
2022-09-21T20:52:30.740Z,35.22
2022-09-21T20:57:35.006Z,28.23
2022-09-21T21:02:44.293Z,20.48
2022-09-21T21:07:50.734Z,20.60
2022-09-21T21:13:37.333Z,18.48
2022-09-21T21:24:53.752Z,20.67
2022-09-21T21:29:57.772Z,14.88
2022-09-21T21:35:01.911Z,8.40
2022-09-21T21:40:09.114Z,14.53
2022-09-21T21:45:12.861Z,19.38
2022-09-21T21:50:16.780Z,13.10
2022-09-21T22:06:51.731Z,11.05
2022-09-21T22:17:00.916Z,20.17
2022-09-21T22:22:05.834Z,13.00
2022-09-21T22:27:09.311Z,13.75
2022-09-21T22:32:12.804Z,10.35
2022-09-21T22:37:17.584Z,9.88
2022-09-21T22:42:20.999Z,11.32
2022-09-21T22:47:29.315Z,8.10
2022-09-21T22:52:34.737Z,9.70
2022-09-21T22:57:38.404Z,14.90
2022-09-21T23:02:43.554Z,9.93
2022-09-21T23:07:51.621Z,10.23
2022-09-21T23:12:55.265Z,8.02
2022-09-21T23:17:58.786Z,7.55
2022-09-21T23:23:06.068Z,11.50
2022-09-21T23:28:09.559Z,18.05
2022-09-21T23:33:13.325Z,13.00
2022-09-21T23:38:18.188Z,10.10
2022-09-21T23:43:21.870Z,9.48
2022-09-21T23:48:26.800Z,13.75
2022-09-21T23:53:32.312Z,6.22
2022-09-21T23:58:38.107Z,6.32
